Time;durP1;ratioP1;P1;durP2;ratioP2;P2;SDS_P1;SDS_P2;PMS_P1;PMS_P2;Temp;Humidity;BMP_temperature;BMP_pressure;BME280_temperature;BME280_humidity;BME280_pressure;Samples;Min_cycle;Max_cycle;Signal;HPM_P1;HPM_P2
2023/11/09 00:00:08;;;;;;;13.10;12.10;;;5.40;99.90;;;;;;4850556;29;20233;-77
2023/11/09 00:02:35;;;;;;;13.07;12.17;;;5.40;99.90;;;;;;4844016;29;20666;-77
2023/11/09 00:05:03;;;;;;;12.23;11.43;;;5.40;99.90;;;;;;4847259;29;20278;-77
2023/11/09 00:07:31;;;;;;;12.90;11.83;;;5.50;99.90;;;;;;4844837;29;20235;-76
2023/11/09 00:10:00;;;;;;;12.40;11.60;;;5.60;99.90;;;;;;4845352;29;20205;-76
2023/11/09 00:12:28;;;;;;;12.23;11.43;;;5.60;99.90;;;;;;4847228;29;20268;-77
2023/11/09 00:14:55;;;;;;;12.00;11.10;;;5.60;99.90;;;;;;4844048;29;20696;-77
2023/11/09 00:17:22;;;;;;;11.77;11.00;;;5.60;99.90;;;;;;4844350;29;20231;-77
2023/11/09 00:19:49;;;;;;;12.80;12.00;;;5.60;99.90;;;;;;4847352;29;20207;-77
2023/11/09 00:22:16;;;;;;;12.33;11.53;;;5.60;99.90;;;;;;4849772;29;20212;-76
2023/11/09 00:24:43;;;;;;;12.50;11.70;;;5.60;99.90;;;;;;4842355;29;20221;-77
2023/11/09 00:27:18;;;;;;;12.50;11.67;;;5.60;99.90;;;;;;4855539;29;20228;-76
2023/11/09 00:29:45;;;;;;;13.27;12.37;;;5.60;99.90;;;;;;4842167;29;20196;-76
2023/11/09 00:32:12;;;;;;;12.53;11.73;;;5.60;99.90;;;;;;4843816;29;20685;-77
2023/11/09 00:34:39;;;;;;;12.50;11.60;;;5.50;99.90;;;;;;4845670;29;20298;-77
2023/11/09 00:37:06;;;;;;;12.60;11.80;;;5.50;99.90;;;;;;4845282;29;20330;-76
2023/11/09 00:39:33;;;;;;;13.17;12.27;;;5.50;99.90;;;;;;4846053;29;20212;-76
2023/11/09 00:41:59;;;;;;;12.80;12.00;;;5.50;99.90;;;;;;4842781;29;20685;-77
2023/11/09 00:44:28;;;;;;;12.87;11.97;;;5.40;99.90;;;;;;4846955;29;20214;-77
2023/11/09 00:46:55;;;;;;;12.60;11.80;;;5.50;99.90;;;;;;4839939;29;20224;-76
2023/11/09 00:49:22;;;;;;;12.30;11.50;;;5.40;99.90;;;;;;4843988;29;20222;-77
2023/11/09 00:51:48;;;;;;;12.20;11.40;;;5.40;99.90;;;;;;4847323;29;20278;-76
2023/11/09 00:54:15;;;;;;;12.63;11.73;;;5.50;99.90;;;;;;4845886;29;20219;-77
2023/11/09 00:56:42;;;;;;;12.20;11.40;;;5.50;99.90;;;;;;4842895;29;20288;-77
2023/11/09 00:59:09;;;;;;;12.73;11.77;;;5.50;99.90;;;;;;4849126;29;20723;-77
2023/11/09 01:01:37;;;;;;;12.23;11.43;;;5.50;99.90;;;;;;4847669;29;20204;-76
2023/11/09 01:04:05;;;;;;;11.97;11.27;;;5.60;99.90;;;;;;4842380;29;20211;-77
2023/11/09 01:06:33;;;;;;;11.77;10.97;;;5.60;99.90;;;;;;4846713;29;20246;-76
2023/11/09 01:09:00;;;;;;;11.40;10.60;;;5.70;99.90;;;;;;4841079;29;20212;-77
2023/11/09 01:11:27;;;;;;;11.13;10.33;;;5.70;99.90;;;;;;4846594;29;20204;-77
2023/11/09 01:13:54;;;;;;;11.07;10.37;;;5.80;99.90;;;;;;4847625;29;20204;-77
2023/11/09 01:16:20;;;;;;;11.50;10.70;;;5.90;99.90;;;;;;4853863;29;20227;-77
2023/11/09 01:18:49;;;;;;;11.57;10.77;;;6.00;99.90;;;;;;4852319;29;20214;-77
2023/11/09 01:21:16;;;;;;;11.30;10.60;;;6.00;99.90;;;;;;4853179;29;20204;-77
2023/11/09 01:23:43;;;;;;;11.13;10.43;;;6.10;99.90;;;;;;4850286;29;20242;-77
2023/11/09 01:26:10;;;;;;;10.93;10.23;;;6.10;99.90;;;;;;4845841;29;20717;-77
2023/11/09 01:28:37;;;;;;;10.67;10.07;;;6.20;99.90;;;;;;4849405;29;20197;-77
2023/11/09 01:31:04;;;;;;;10.67;10.07;;;6.20;99.90;;;;;;4842265;29;20602;-77
2023/11/09 01:33:31;;;;;;;11.10;10.40;;;6.20;99.90;;;;;;4841854;29;20269;-77
2023/11/09 01:36:00;;;;;;;10.43;9.83;;;6.30;99.90;;;;;;4847128;29;20595;-76
2023/11/09 01:38:27;;;;;;;11.00;10.30;;;6.20;99.90;;;;;;4847598;29;20247;-76
2023/11/09 01:40:54;;;;;;;11.10;10.50;;;6.30;99.90;;;;;;4849687;29;20216;-77
2023/11/09 01:43:21;;;;;;;10.80;10.20;;;6.30;99.90;;;;;;4847680;29;20209;-77
2023/11/09 01:45:51;;;;;;;10.90;10.20;;;6.30;99.90;;;;;;4846762;29;20217;-77
2023/11/09 01:48:19;;;;;;;11.00;10.30;;;6.20;99.90;;;;;;4843868;29;20591;-77
2023/11/09 01:50:47;;;;;;;11.00;10.20;;;6.20;99.90;;;;;;4843805;29;20269;-77
2023/11/09 01:53:15;;;;;;;11.30;10.60;;;6.10;99.90;;;;;;4845624;29;20243;-77
2023/11/09 01:55:43;;;;;;;11.00;10.30;;;6.20;99.90;;;;;;4846883;29;20212;-77
2023/11/09 01:58:11;;;;;;;11.27;10.47;;;6.10;99.90;;;;;;4847117;29;20208;-77
2023/11/09 02:00:39;;;;;;;11.73;10.83;;;6.10;99.90;;;;;;4848067;29;20205;-77
2023/11/09 02:03:06;;;;;;;11.90;11.03;;;6.10;99.90;;;;;;4867183;29;20764;-76
2023/11/09 02:05:34;;;;;;;11.20;10.40;;;6.00;99.90;;;;;;4859216;29;20224;-77
2023/11/09 02:08:03;;;;;;;11.40;10.70;;;6.00;99.90;;;;;;4851847;29;20220;-76
2023/11/09 02:10:32;;;;;;;11.70;10.90;;;6.00;99.90;;;;;;4855596;29;20744;-77
2023/11/09 02:13:00;;;;;;;11.17;10.47;;;6.00;99.90;;;;;;4849041;29;20308;-77
2023/11/09 02:15:28;;;;;;;12.07;11.13;;;6.00;99.90;;;;;;4845761;29;20297;-77
2023/11/09 02:17:56;;;;;;;13.00;12.00;;;5.90;99.90;;;;;;4855782;29;20248;-77
2023/11/09 02:20:24;;;;;;;13.87;12.63;;;5.70;99.90;;;;;;4844414;29;20232;-77
2023/11/09 02:22:53;;;;;;;14.63;13.43;;;5.50;99.90;;;;;;4843220;29;20243;-76
2023/11/09 02:25:21;;;;;;;14.37;13.17;;;5.10;99.90;;;;;;4846878;29;20203;-77
2023/11/09 02:27:48;;;;;;;14.27;13.27;;;4.80;99.90;;;;;;4848243;29;20323;-76
2023/11/09 02:30:14;;;;;;;14.30;13.20;;;4.70;99.90;;;;;;4844777;29;20210;-76
2023/11/09 02:32:41;;;;;;;14.93;13.63;;;4.50;99.90;;;;;;4844920;29;20198;-76
2023/11/09 02:35:09;;;;;;;15.03;13.83;;;4.40;99.90;;;;;;4849589;29;20202;-76
2023/11/09 02:37:35;;;;;;;14.30;13.03;;;4.30;99.90;;;;;;4851694;29;20225;-76
2023/11/09 02:40:04;;;;;;;14.03;12.80;;;4.30;99.90;;;;;;4851030;29;20212;-76
2023/11/09 02:42:32;;;;;;;13.07;12.17;;;4.20;99.90;;;;;;4848429;29;20281;-77
2023/11/09 02:44:59;;;;;;;13.47;12.43;;;4.20;99.90;;;;;;4843343;29;20203;-76
2023/11/09 02:47:25;;;;;;;14.27;13.07;;;4.30;99.90;;;;;;4850989;29;20282;-76
2023/11/09 02:49:52;;;;;;;13.70;12.60;;;4.30;99.90;;;;;;4848646;29;20203;-77
2023/11/09 02:52:19;;;;;;;13.90;12.80;;;4.30;99.90;;;;;;4846994;29;20203;-76
2023/11/09 02:54:46;;;;;;;13.70;12.60;;;4.30;99.90;;;;;;4846615;29;20597;-76
2023/11/09 02:57:13;;;;;;;13.40;12.50;;;4.30;99.90;;;;;;4843597;29;20226;-76
2023/11/09 02:59:44;;;;;;;13.90;12.80;;;4.30;99.90;;;;;;4843561;29;20210;-76
2023/11/09 03:02:11;;;;;;;13.27;12.27;;;4.30;99.90;;;;;;4849016;29;20275;-76
2023/11/09 03:04:39;;;;;;;12.40;11.60;;;4.30;99.90;;;;;;4847771;29;20233;-77
2023/11/09 03:07:07;;;;;;;12.67;11.77;;;4.30;99.90;;;;;;4846197;29;20233;-76
2023/11/09 03:09:35;;;;;;;12.67;11.77;;;4.30;99.90;;;;;;4845648;29;20206;-77
2023/11/09 03:12:05;;;;;;;13.13;12.23;;;4.30;99.90;;;;;;4846001;29;20205;-76
2023/11/09 03:14:33;;;;;;;13.13;12.20;;;4.30;99.90;;;;;;4845659;29;20290;-76
2023/11/09 03:17:03;;;;;;;13.13;12.13;;;4.30;99.90;;;;;;4851906;29;20222;-77
2023/11/09 03:19:30;;;;;;;13.07;12.17;;;4.20;99.90;;;;;;4842346;29;20202;-76
2023/11/09 03:21:57;;;;;;;13.33;12.13;;;4.20;99.90;;;;;;4842683;29;20206;-76
2023/11/09 03:24:24;;;;;;;13.80;12.70;;;4.10;99.90;;;;;;4847344;29;20654;-76
2023/11/09 03:26:51;;;;;;;13.93;12.90;;;4.00;99.90;;;;;;4848717;29;20234;-76
2023/11/09 03:29:18;;;;;;;14.60;13.50;;;4.00;99.90;;;;;;4848272;29;20206;-76
2023/11/09 03:31:46;;;;;;;14.37;13.17;;;4.00;99.90;;;;;;4844285;29;20271;-76
2023/11/09 03:34:14;;;;;;;14.33;13.23;;;4.00;99.90;;;;;;4858144;29;20206;-76
2023/11/09 03:36:41;;;;;;;13.53;12.53;;;4.00;99.90;;;;;;4849435;29;20234;-76
2023/11/09 03:39:09;;;;;;;13.47;12.47;;;4.10;99.90;;;;;;4844279;29;20230;-76
2023/11/09 03:41:39;;;;;;;14.50;13.33;;;4.00;99.90;;;;;;4853667;29;20207;-80
2023/11/09 03:44:06;;;;;;;14.33;13.23;;;4.00;99.90;;;;;;4844106;29;20217;-77
2023/11/09 03:46:33;;;;;;;14.50;13.40;;;4.00;99.90;;;;;;4840505;29;20227;-76
2023/11/09 03:49:00;;;;;;;14.63;13.53;;;3.90;99.90;;;;;;4845154;29;20218;-76
2023/11/09 03:51:29;;;;;;;14.83;13.63;;;3.80;99.90;;;;;;4849680;29;20198;-78
2023/11/09 03:53:56;;;;;;;15.07;13.80;;;3.80;99.90;;;;;;4847648;29;20202;-79
2023/11/09 03:56:24;;;;;;;14.70;13.50;;;3.70;99.90;;;;;;4861317;29;20218;-78
2023/11/09 03:58:51;;;;;;;14.33;13.33;;;3.70;99.90;;;;;;4852463;29;20245;-79
2023/11/09 04:01:19;;;;;;;14.53;13.20;;;3.70;99.90;;;;;;4862813;29;20198;-78
2023/11/09 04:03:46;;;;;;;14.07;13.00;;;3.70;99.90;;;;;;4857605;29;20209;-79
2023/11/09 04:06:17;;;;;;;14.17;13.07;;;3.70;99.90;;;;;;4859356;29;20230;-78
2023/11/09 04:08:46;;;;;;;13.93;12.93;;;3.70;99.90;;;;;;4861863;29;20262;-78
2023/11/09 04:11:13;;;;;;;15.00;13.63;;;3.70;99.90;;;;;;4863732;29;20198;-80
2023/11/09 04:13:40;;;;;;;14.80;13.60;;;3.60;99.90;;;;;;4861188;29;20205;-80
2023/11/09 04:16:09;;;;;;;13.93;12.93;;;3.50;99.90;;;;;;4861867;29;20680;-80
2023/11/09 04:18:38;;;;;;;13.97;12.77;;;3.50;99.90;;;;;;4859241;29;20555;-79
2023/11/09 04:21:09;;;;;;;14.47;13.27;;;3.40;99.90;;;;;;4848907;29;20210;-78
2023/11/09 04:23:36;;;;;;;14.23;13.17;;;3.40;99.90;;;;;;4849492;29;20206;-78
2023/11/09 04:26:08;;;;;;;15.37;13.83;;;3.30;99.90;;;;;;4854413;29;20230;-78
2023/11/09 04:28:35;;;;;;;14.73;13.53;;;3.30;99.90;;;;;;4849980;29;20684;-78
2023/11/09 04:31:04;;;;;;;15.47;14.13;;;3.40;99.90;;;;;;4861979;29;20213;-79
2023/11/09 04:33:31;;;;;;;13.93;12.93;;;3.40;99.90;;;;;;4849214;29;20274;-78
2023/11/09 04:36:00;;;;;;;15.37;13.80;;;3.50;99.90;;;;;;4849853;29;20218;-78
2023/11/09 04:38:30;;;;;;;15.20;13.97;;;3.50;99.90;;;;;;4859393;29;20199;-78
2023/11/09 04:41:01;;;;;;;13.73;12.83;;;3.50;99.90;;;;;;4851815;29;20193;-78
2023/11/09 04:43:30;;;;;;;14.20;13.17;;;3.60;99.90;;;;;;4848506;29;20216;-78
2023/11/09 04:46:05;;;;;;;13.63;12.63;;;3.60;99.90;;;;;;4853718;29;20218;-76
2023/11/09 04:48:33;;;;;;;13.33;12.43;;;3.50;99.90;;;;;;4861585;29;20197;-76
2023/11/09 04:51:01;;;;;;;13.23;12.23;;;3.60;99.90;;;;;;4845761;29;20689;-75
2023/11/09 04:53:31;;;;;;;13.03;12.03;;;3.60;99.90;;;;;;4852880;29;20207;-76
2023/11/09 04:56:04;;;;;;;13.90;12.90;;;3.70;99.90;;;;;;4850297;29;20229;-75
2023/11/09 04:58:48;;;;;;;13.77;12.77;;;3.80;99.90;;;;;;4848139;29;20210;-76
2023/11/09 05:06:52;;;;;;;13.37;12.37;;;3.80;99.90;;;;;;4850794;29;20230;-76
2023/11/09 05:09:21;;;;;;;13.33;12.13;;;3.90;99.90;;;;;;4846898;29;20195;-75
2023/11/09 05:11:48;;;;;;;12.60;11.80;;;4.00;99.90;;;;;;4854290;29;20702;-76
2023/11/09 05:14:17;;;;;;;12.57;11.77;;;4.10;99.90;;;;;;4847828;29;20703;-76
2023/11/09 05:16:44;;;;;;;14.10;12.97;;;4.10;99.90;;;;;;4846840;29;20742;-76
2023/11/09 05:19:12;;;;;;;13.87;12.87;;;4.10;99.90;;;;;;4845214;29;20296;-76
2023/11/09 05:21:40;;;;;;;14.13;12.93;;;4.10;99.90;;;;;;4849288;29;20627;-75
2023/11/09 05:24:07;;;;;;;12.20;11.13;;;3.90;99.90;;;;;;4849093;29;20217;-76
2023/11/09 05:26:36;;;;;;;13.20;12.20;;;3.80;99.90;;;;;;4845707;29;20299;-76
2023/11/09 05:29:05;;;;;;;14.43;13.33;;;3.80;99.90;;;;;;4847799;29;20241;-76
2023/11/09 05:31:34;;;;;;;12.80;11.73;;;3.70;99.90;;;;;;4848106;29;20203;-76
2023/11/09 05:34:01;;;;;;;12.73;11.63;;;3.60;99.90;;;;;;4849703;29;20206;-75
2023/11/09 05:36:28;;;;;;;15.43;14.23;;;3.60;99.90;;;;;;4854472;29;20220;-76
2023/11/09 05:38:55;;;;;;;16.67;15.27;;;3.60;99.90;;;;;;4846707;29;20463;-76
2023/11/09 05:41:22;;;;;;;16.97;15.37;;;3.50;99.90;;;;;;4859522;29;20258;-75
2023/11/09 05:43:49;;;;;;;16.30;15.10;;;3.50;99.90;;;;;;4856417;29;20201;-76
2023/11/09 05:46:15;;;;;;;15.60;14.50;;;3.40;99.90;;;;;;4849775;29;20293;-76
2023/11/09 05:48:44;;;;;;;15.40;14.33;;;3.40;99.90;;;;;;4848929;29;20293;-76
2023/11/09 05:51:10;;;;;;;15.53;14.43;;;3.40;99.90;;;;;;4846834;29;20202;-76
2023/11/09 05:53:37;;;;;;;15.97;14.73;;;3.40;99.90;;;;;;4845497;29;20206;-76
2023/11/09 05:56:04;;;;;;;16.60;15.27;;;3.50;99.90;;;;;;4850241;29;20274;-75
2023/11/09 05:58:31;;;;;;;19.53;17.83;;;3.40;99.90;;;;;;4845108;29;20207;-75
2023/11/09 06:00:58;;;;;;;19.13;17.30;;;3.40;99.90;;;;;;4846450;29;20279;-75
2023/11/09 06:03:25;;;;;;;17.13;15.80;;;3.40;99.90;;;;;;4863709;29;20258;-76
2023/11/09 06:05:53;;;;;;;16.43;15.23;;;3.40;99.90;;;;;;4860551;29;20249;-76
2023/11/09 06:08:20;;;;;;;17.23;15.90;;;3.40;99.90;;;;;;4859688;29;20723;-76
2023/11/09 06:10:49;;;;;;;17.60;15.87;;;3.40;99.90;;;;;;4856431;29;20211;-75
2023/11/09 06:13:16;;;;;;;18.80;17.10;;;3.40;99.90;;;;;;4854205;29;20328;-76
2023/11/09 06:15:43;;;;;;;17.03;15.50;;;3.40;99.90;;;;;;4855480;29;20202;-76
2023/11/09 06:18:10;;;;;;;16.67;15.40;;;3.40;99.90;;;;;;4847292;29;20206;-76
2023/11/09 06:20:37;;;;;;;16.63;15.23;;;3.40;99.90;;;;;;4843247;29;20294;-75
2023/11/09 06:23:06;;;;;;;16.63;15.40;;;3.40;99.90;;;;;;4851687;29;20304;-76
2023/11/09 06:25:33;;;;;;;17.13;15.70;;;3.50;99.90;;;;;;4848716;29;20194;-76
2023/11/09 06:28:02;;;;;;;16.53;15.13;;;3.50;99.90;;;;;;4852104;29;20313;-76
2023/11/09 06:30:29;;;;;;;16.77;15.57;;;3.50;99.90;;;;;;4845522;29;20202;-76
2023/11/09 06:32:56;;;;;;;15.67;14.57;;;3.60;99.90;;;;;;4859747;29;20366;-75
2023/11/09 06:35:23;;;;;;;16.27;15.07;;;3.60;99.90;;;;;;4859500;29;20217;-76
2023/11/09 06:37:50;;;;;;;15.53;14.33;;;3.70;99.90;;;;;;4854645;29;20223;-76
2023/11/09 06:40:18;;;;;;;17.07;15.77;;;3.70;99.90;;;;;;4855251;29;20688;-76
2023/11/09 06:42:47;;;;;;;16.43;15.13;;;3.70;99.90;;;;;;4852890;29;20212;-76
2023/11/09 06:45:13;;;;;;;16.73;15.43;;;3.80;99.90;;;;;;4858420;29;20743;-76
2023/11/09 06:47:41;;;;;;;16.80;15.53;;;3.80;99.90;;;;;;4853296;29;20218;-77
2023/11/09 06:50:12;;;;;;;16.00;14.70;;;3.80;99.90;;;;;;4859493;29;20202;-77
2023/11/09 06:52:40;;;;;;;14.87;13.57;;;3.80;99.90;;;;;;4841535;29;20214;-76
2023/11/09 06:55:08;;;;;;;15.17;14.17;;;3.80;99.90;;;;;;4847742;29;20249;-76
2023/11/09 06:57:37;;;;;;;15.33;14.03;;;3.90;99.90;;;;;;4849288;29;20214;-76
2023/11/09 07:00:05;;;;;;;15.10;13.93;;;3.90;99.90;;;;;;4860047;29;20676;-76
2023/11/09 07:02:32;;;;;;;15.40;14.27;;;4.00;99.90;;;;;;4850050;29;20209;-76
2023/11/09 07:04:59;;;;;;;15.00;13.80;;;4.00;99.90;;;;;;4859547;29;20213;-76
2023/11/09 07:07:27;;;;;;;14.67;13.67;;;4.10;99.90;;;;;;4857980;29;20310;-76
2023/11/09 07:09:54;;;;;;;14.53;13.53;;;4.30;99.90;;;;;;4852126;29;20202;-76
2023/11/09 07:12:20;;;;;;;14.57;13.47;;;4.40;99.90;;;;;;4842855;29;20234;-76
2023/11/09 07:14:49;;;;;;;13.00;11.90;;;4.50;99.90;;;;;;4851011;29;20206;-76
2023/11/09 07:17:15;;;;;;;13.73;12.80;;;4.60;99.90;;;;;;4857824;29;20226;-76
2023/11/09 07:19:43;;;;;;;13.37;12.47;;;4.80;99.90;;;;;;4859799;29;20659;-76
2023/11/09 07:22:10;;;;;;;13.70;12.80;;;5.00;99.90;;;;;;4851762;29;20586;-76
2023/11/09 07:24:39;;;;;;;13.87;12.87;;;5.20;99.90;;;;;;4855806;29;20207;-76
2023/11/09 07:27:09;;;;;;;12.93;12.03;;;5.30;99.90;;;;;;4849099;29;20226;-76
2023/11/09 07:29:36;;;;;;;13.70;12.83;;;5.50;99.90;;;;;;4841689;29;20589;-76
2023/11/09 07:32:05;;;;;;;13.37;12.57;;;5.60;99.90;;;;;;4844128;29;20238;-78
2023/11/09 07:34:31;;;;;;;13.53;12.53;;;5.80;99.90;;;;;;4857103;29;20216;-78
2023/11/09 07:37:01;;;;;;;12.93;12.13;;;5.90;99.90;;;;;;4857122;29;20223;-78
2023/11/09 07:39:28;;;;;;;12.77;11.97;;;6.00;99.90;;;;;;4861654;29;20668;-78
2023/11/09 07:41:55;;;;;;;12.90;12.00;;;6.10;99.90;;;;;;4847112;29;20267;-78
2023/11/09 07:44:22;;;;;;;12.60;11.80;;;6.20;99.90;;;;;;4853599;29;20303;-78
2023/11/09 07:46:50;;;;;;;12.67;11.80;;;6.20;99.90;;;;;;4861119;29;20268;-78
2023/11/09 07:49:18;;;;;;;13.00;12.10;;;6.30;99.90;;;;;;4857350;29;20213;-78
2023/11/09 07:51:45;;;;;;;13.27;12.47;;;6.40;99.90;;;;;;4865459;29;20253;-78
2023/11/09 07:54:12;;;;;;;12.57;11.67;;;6.40;99.90;;;;;;4849960;29;20680;-77
2023/11/09 07:56:39;;;;;;;13.50;12.43;;;6.40;99.90;;;;;;4855362;29;20225;-78
2023/11/09 07:59:06;;;;;;;11.97;11.17;;;6.50;99.90;;;;;;4853578;29;20216;-78
2023/11/09 08:01:33;;;;;;;12.10;11.20;;;6.60;99.90;;;;;;4857022;29;20212;-79
2023/11/09 08:03:59;;;;;;;12.30;11.40;;;6.60;99.90;;;;;;4856274;29;20221;-79
2023/11/09 08:06:27;;;;;;;12.40;11.60;;;6.70;99.90;;;;;;4847964;29;20723;-78
2023/11/09 08:08:54;;;;;;;13.17;12.30;;;6.80;99.90;;;;;;4849392;29;20225;-79
2023/11/09 08:11:21;;;;;;;12.50;11.70;;;6.80;99.90;;;;;;4851359;29;20609;-78
2023/11/09 08:13:48;;;;;;;12.03;11.23;;;6.90;99.90;;;;;;4856908;29;20217;-78
2023/11/09 08:16:15;;;;;;;11.87;11.00;;;6.90;99.90;;;;;;4852203;29;20289;-78
2023/11/09 08:18:43;;;;;;;12.40;11.60;;;6.90;99.90;;;;;;4851462;29;20254;-78
2023/11/09 08:21:10;;;;;;;13.00;12.20;;;6.90;99.90;;;;;;4849425;29;20200;-76
2023/11/09 08:23:39;;;;;;;12.20;11.30;;;6.90;99.90;;;;;;4854146;29;20219;-76
2023/11/09 08:26:06;;;;;;;13.63;12.70;;;7.00;99.90;;;;;;4854092;29;20255;-76
2023/11/09 08:28:33;;;;;;;12.80;11.90;;;7.00;99.90;;;;;;4854780;29;20221;-76
2023/11/09 08:31:00;;;;;;;12.80;11.80;;;7.00;99.90;;;;;;4853412;29;20237;-76
2023/11/09 08:33:26;;;;;;;12.47;11.57;;;7.10;99.90;;;;;;4854697;29;20201;-76
2023/11/09 08:35:54;;;;;;;12.10;11.20;;;7.10;99.90;;;;;;4862413;29;20225;-76
2023/11/09 08:38:22;;;;;;;12.33;11.53;;;7.20;99.90;;;;;;4846659;29;20199;-76
2023/11/09 08:40:51;;;;;;;11.97;11.17;;;7.30;99.90;;;;;;4854456;29;20210;-76
2023/11/09 08:43:18;;;;;;;11.97;11.17;;;7.40;99.90;;;;;;4847596;29;20210;-79
2023/11/09 08:45:45;;;;;;;11.60;10.90;;;7.40;99.90;;;;;;4852152;29;20213;-76
2023/11/09 08:48:12;;;;;;;12.40;11.50;;;7.50;99.90;;;;;;4860540;29;20727;-76
2023/11/09 08:50:40;;;;;;;12.20;11.40;;;7.70;99.90;;;;;;4851012;29;20206;-76
2023/11/09 08:53:08;;;;;;;10.70;10.00;;;7.80;99.90;;;;;;4857798;29;20245;-76
2023/11/09 08:55:35;;;;;;;9.80;9.20;;;7.90;99.90;;;;;;4844949;29;20220;-77
2023/11/09 08:58:04;;;;;;;9.53;8.83;;;8.00;99.90;;;;;;4857323;29;20198;-75
2023/11/09 09:00:32;;;;;;;9.60;8.90;;;8.10;99.90;;;;;;4854482;29;20262;-76
2023/11/09 09:03:01;;;;;;;9.00;8.40;;;8.20;99.90;;;;;;4848043;29;20278;-77
2023/11/09 09:05:28;;;;;;;8.93;8.33;;;8.30;99.90;;;;;;4853753;29;20270;-76
2023/11/09 09:07:59;;;;;;;9.20;8.60;;;8.40;99.90;;;;;;4853159;29;20222;-76
2023/11/09 09:10:27;;;;;;;9.47;8.83;;;8.50;99.90;;;;;;4854998;29;20221;-76
2023/11/09 09:12:56;;;;;;;9.00;8.50;;;8.60;99.90;;;;;;4849245;29;20199;-76
2023/11/09 09:15:27;;;;;;;9.33;8.73;;;8.70;99.90;;;;;;4849753;29;20217;-76
2023/11/09 09:17:55;;;;;;;9.30;8.63;;;8.80;99.90;;;;;;4846614;29;20257;-76
2023/11/09 09:20:23;;;;;;;5.27;4.40;;;9.00;99.90;;;;;;4847274;29;20211;-76
2023/11/09 09:22:52;;;;;;;4.67;4.27;;;9.10;99.90;;;;;;4863900;29;20194;-78
2023/11/09 09:25:22;;;;;;;7.60;7.10;;;9.30;99.90;;;;;;4857757;29;20217;-78
2023/11/09 09:27:50;;;;;;;5.13;4.83;;;9.60;99.90;;;;;;4846863;29;20226;-77
2023/11/09 09:30:21;;;;;;;5.30;5.00;;;9.90;99.90;;;;;;4866229;29;20258;-76
2023/11/09 09:32:51;;;;;;;3.70;3.40;;;10.10;99.90;;;;;;4851474;29;20218;-77
2023/11/09 09:35:20;;;;;;;2.77;2.57;;;10.20;99.90;;;;;;4853841;29;20748;-77
2023/11/09 09:37:48;;;;;;;2.73;2.60;;;10.20;99.90;;;;;;4851497;29;20278;-77
2023/11/09 09:40:19;;;;;;;2.43;2.33;;;10.20;99.90;;;;;;4849579;29;20269;-76
2023/11/09 09:42:49;;;;;;;6.27;5.90;;;10.20;99.90;;;;;;4849744;29;20215;-77
2023/11/09 09:45:18;;;;;;;5.60;5.23;;;10.30;99.90;;;;;;4853063;29;20682;-77
2023/11/09 09:47:48;;;;;;;5.70;5.30;;;10.30;99.90;;;;;;4853935;29;20236;-77
2023/11/09 09:50:17;;;;;;;4.80;4.50;;;10.20;99.90;;;;;;4852593;29;20695;-77
2023/11/09 09:52:46;;;;;;;4.70;4.40;;;10.30;99.90;;;;;;4849567;29;20213;-77
2023/11/09 09:55:18;;;;;;;4.90;4.70;;;10.30;99.90;;;;;;4853510;29;20211;-77
2023/11/09 09:57:47;;;;;;;5.17;4.97;;;10.40;99.90;;;;;;4847679;29;20233;-76
2023/11/09 10:00:23;;;;;;;4.50;4.30;;;10.50;99.90;;;;;;4852952;29;20737;-77
2023/11/09 10:02:51;;;;;;;4.90;4.70;;;10.60;99.90;;;;;;4870540;29;20215;-77
2023/11/09 10:05:20;;;;;;;4.60;4.40;;;10.80;99.90;;;;;;4861305;29;20199;-78
2023/11/09 10:08:02;;;;;;;2.80;2.70;;;10.90;99.90;;;;;;4867859;29;20230;-78
2023/11/09 10:10:32;;;;;;;2.80;2.60;;;10.90;99.90;;;;;;4860293;29;20276;-77
2023/11/09 10:12:59;;;;;;;2.60;2.50;;;11.00;99.90;;;;;;4865361;29;20238;-77
2023/11/09 10:15:26;;;;;;;3.07;2.97;;;11.00;99.90;;;;;;4853873;29;20203;-77
2023/11/09 10:17:54;;;;;;;10.10;9.50;;;11.00;99.90;;;;;;4847537;29;20280;-77
2023/11/09 10:20:22;;;;;;;11.27;10.67;;;11.10;99.90;;;;;;4850221;29;20594;-76
2023/11/09 10:22:50;;;;;;;10.67;10.07;;;11.10;99.90;;;;;;4852455;29;20197;-77
2023/11/09 10:25:18;;;;;;;9.90;9.40;;;11.10;99.90;;;;;;4854291;29;20204;-77
2023/11/09 10:27:48;;;;;;;10.20;9.70;;;11.10;99.90;;;;;;4849932;29;20608;-77
2023/11/09 10:30:16;;;;;;;10.00;9.30;;;11.20;99.90;;;;;;4851043;29;20404;-77
2023/11/09 10:32:43;;;;;;;10.03;9.53;;;11.20;99.90;;;;;;4846939;29;20213;-77
2023/11/09 10:35:11;;;;;;;10.10;9.50;;;11.30;99.90;;;;;;4851553;29;20216;-77
2023/11/09 10:37:40;;;;;;;9.90;9.40;;;11.40;99.90;;;;;;4850571;29;20321;-77
2023/11/09 10:40:12;;;;;;;9.80;9.30;;;11.60;99.90;;;;;;4853107;29;20212;-77
2023/11/09 10:42:40;;;;;;;10.00;9.40;;;11.70;99.90;;;;;;4856651;29;20209;-77
2023/11/09 10:45:10;;;;;;;10.07;9.37;;;11.90;99.90;;;;;;4852445;29;20228;-77
2023/11/09 10:47:40;;;;;;;9.73;9.20;;;12.00;99.90;;;;;;4849388;29;20237;-77
2023/11/09 10:50:13;;;;;;;9.53;9.03;;;12.10;99.90;;;;;;4854349;29;20241;-77
2023/11/09 10:52:44;;;;;;;9.20;8.70;;;12.20;99.90;;;;;;4848902;29;20218;-78
2023/11/09 10:55:12;;;;;;;9.53;9.00;;;12.40;99.90;;;;;;4851137;29;20596;-77
2023/11/09 10:57:42;;;;;;;9.80;9.20;;;12.40;99.90;;;;;;4855695;29;20231;-77
2023/11/09 11:00:11;;;;;;;10.33;9.70;;;12.50;99.90;;;;;;4861155;29;20214;-77
2023/11/09 11:02:47;;;;;;;10.80;10.20;;;12.60;99.90;;;;;;4852238;29;20262;-77
2023/11/09 11:05:18;;;;;;;8.33;7.93;;;12.60;99.90;;;;;;4857540;29;20203;-77
2023/11/09 11:07:47;;;;;;;4.93;4.67;;;12.70;99.90;;;;;;4852073;29;20316;-77
2023/11/09 11:10:16;;;;;;;5.23;4.93;;;12.80;99.90;;;;;;4851270;29;20270;-77
2023/11/09 11:12:45;;;;;;;4.80;4.60;;;12.80;99.90;;;;;;4858362;29;20210;-78
2023/11/09 11:15:13;;;;;;;4.90;4.60;;;12.90;99.90;;;;;;4855170;29;20206;-78
2023/11/09 11:17:51;;;;;;;4.60;4.40;;;13.00;99.90;;;;;;4849406;29;20327;-78
2023/11/09 11:20:48;;;;;;;4.77;4.53;;;12.90;99.90;;;;;;4857886;29;20240;-78
2023/11/09 11:23:51;;;;;;;5.40;5.00;;;12.90;99.90;;;;;;4851978;29;20217;-78
2023/11/09 11:26:21;;;;;;;5.20;4.80;;;12.80;99.90;;;;;;4849744;29;20233;-77
2023/11/09 11:28:48;;;;;;;4.90;4.50;;;12.90;99.90;;;;;;4848517;29;20226;-78
2023/11/09 11:31:15;;;;;;;5.00;4.70;;;13.00;99.90;;;;;;4853413;29;20267;-77
2023/11/09 11:33:46;;;;;;;2.70;2.60;;;13.10;99.90;;;;;;4855607;29;20215;-78
2023/11/09 11:36:26;;;;;;;3.70;3.50;;;13.10;99.90;;;;;;4861188;29;20968;-78
2023/11/09 11:39:35;;;;;;;3.33;3.03;;;13.10;99.90;;;;;;4862614;29;20238;-77
2023/11/09 11:42:17;;;;;;;4.30;4.10;;;13.10;99.90;;;;;;4847552;29;20228;-77
2023/11/09 11:44:49;;;;;;;4.33;4.03;;;13.10;99.90;;;;;;4848070;29;20207;-78
2023/11/09 11:47:17;;;;;;;4.60;4.30;;;13.10;99.90;;;;;;4857212;29;20266;-77
2023/11/09 11:49:46;;;;;;;4.20;3.93;;;13.10;99.90;;;;;;4857003;29;20242;-81
2023/11/09 11:52:13;;;;;;;4.20;4.00;;;13.10;99.90;;;;;;4856489;29;20210;-81
2023/11/09 11:55:00;;;;;;;3.07;2.87;;;13.10;99.90;;;;;;4856753;29;20206;-83
2023/11/09 11:57:31;;;;;;;3.90;3.70;;;13.10;99.90;;;;;;4851019;29;20218;-77
2023/11/09 12:00:04;;;;;;;3.90;3.60;;;13.10;99.90;;;;;;4853923;29;20203;-81
2023/11/09 12:02:31;;;;;;;3.30;3.10;;;13.20;99.90;;;;;;4901927;23;20241;-82
2023/11/09 12:04:58;;;;;;;3.40;3.20;;;13.30;99.90;;;;;;4894261;29;20211;-82
2023/11/09 12:07:29;;;;;;;3.23;3.03;;;13.30;99.90;;;;;;4896811;29;20204;-82
2023/11/09 12:09:57;;;;;;;4.40;4.10;;;13.40;99.90;;;;;;4890209;29;20314;-82
2023/11/09 12:12:31;;;;;;;4.57;4.27;;;13.50;99.90;;;;;;4872578;29;20249;-82
2023/11/09 12:15:00;;;;;;;4.73;4.43;;;13.70;99.90;;;;;;4876586;29;20304;-82
2023/11/09 12:17:27;;;;;;;4.17;3.97;;;13.90;99.90;;;;;;4867273;29;20208;-82
2023/11/09 12:19:54;;;;;;;3.37;3.27;;;14.00;99.90;;;;;;4866535;29;20211;-82
2023/11/09 12:22:22;;;;;;;3.23;3.07;;;14.10;99.90;;;;;;4871207;29;20236;-81
2023/11/09 12:25:00;;;;;;;3.10;2.90;;;14.20;99.90;;;;;;4872002;29;20218;-81
2023/11/09 12:27:27;;;;;;;3.70;3.50;;;14.40;99.90;;;;;;4864882;29;20301;-82
2023/11/09 12:29:54;;;;;;;4.20;4.00;;;14.50;99.90;;;;;;4868629;29;20726;-82
2023/11/09 12:32:20;;;;;;;4.80;4.50;;;14.30;99.90;;;;;;4865479;29;20637;-82
2023/11/09 12:34:48;;;;;;;5.17;4.67;;;14.30;99.90;;;;;;4867022;29;20212;-81
2023/11/09 12:37:17;;;;;;;4.77;4.47;;;14.10;99.90;;;;;;4870268;29;20206;-81
2023/11/09 12:39:45;;;;;;;5.13;4.70;;;14.00;99.90;;;;;;4867715;29;20206;-81
2023/11/09 12:42:19;;;;;;;4.30;4.10;;;13.90;99.90;;;;;;4868111;29;20234;-82
2023/11/09 12:44:46;;;;;;;4.40;4.20;;;13.70;99.90;;;;;;4861539;29;20211;-82
2023/11/09 12:47:15;;;;;;;7.07;6.70;;;13.70;99.90;;;;;;4865817;29;20212;-82
2023/11/09 12:53:27;;;;;;;9.50;9.00;;;13.80;99.90;;;;;;4035625;27;20230;-80
2023/11/09 12:55:55;;;;;;;10.13;9.63;;;13.90;99.90;;;;;;4893809;29;20558;-80